sensor_id;sensor_type;location;lat;lon;timestamp;temperature;humidity
20446;DHT22;10382;49.140;9.234;2022-10-16T00:00:42;18.60;99.90
20446;DHT22;10382;49.140;9.234;2022-10-16T00:03:09;18.60;99.90
20446;DHT22;10382;49.140;9.234;2022-10-16T00:05:38;18.60;99.90
20446;DHT22;10382;49.140;9.234;2022-10-16T00:08:06;18.70;99.90
20446;DHT22;10382;49.140;9.234;2022-10-16T00:10:35;18.70;99.90
20446;DHT22;10382;49.140;9.234;2022-10-16T00:13:03;18.70;99.90
20446;DHT22;10382;49.140;9.234;2022-10-16T00:15:30;18.60;99.90
20446;DHT22;10382;49.140;9.234;2022-10-16T00:17:57;18.60;99.90
20446;DHT22;10382;49.140;9.234;2022-10-16T00:20:24;18.50;99.90
20446;DHT22;10382;49.140;9.234;2022-10-16T00:22:51;18.40;99.90
20446;DHT22;10382;49.140;9.234;2022-10-16T00:25:17;18.30;99.90
20446;DHT22;10382;49.140;9.234;2022-10-16T00:27:46;18.30;99.90
20446;DHT22;10382;49.140;9.234;2022-10-16T00:30:13;18.30;99.90
20446;DHT22;10382;49.140;9.234;2022-10-16T00:32:39;18.40;99.90
20446;DHT22;10382;49.140;9.234;2022-10-16T00:35:06;18.50;99.90
20446;DHT22;10382;49.140;9.234;2022-10-16T00:37:33;18.60;99.90
20446;DHT22;10382;49.140;9.234;2022-10-16T00:40:00;18.70;99.90
20446;DHT22;10382;49.140;9.234;2022-10-16T00:42:27;18.80;99.90
20446;DHT22;10382;49.140;9.234;2022-10-16T00:44:56;18.90;99.90
20446;DHT22;10382;49.140;9.234;2022-10-16T00:47:26;18.90;99.90
20446;DHT22;10382;49.140;9.234;2022-10-16T00:49:59;19.00;99.90
20446;DHT22;10382;49.140;9.234;2022-10-16T00:52:27;19.00;99.90
20446;DHT22;10382;49.140;9.234;2022-10-16T00:54:54;18.90;99.90
20446;DHT22;10382;49.140;9.234;2022-10-16T00:57:22;18.90;99.90
20446;DHT22;10382;49.140;9.234;2022-10-16T00:59:49;19.00;99.90
20446;DHT22;10382;49.140;9.234;2022-10-16T01:02:18;19.00;99.90
20446;DHT22;10382;49.140;9.234;2022-10-16T01:04:48;19.00;99.90
20446;DHT22;10382;49.140;9.234;2022-10-16T01:07:24;19.00;99.90
20446;DHT22;10382;49.140;9.234;2022-10-16T01:10:02;19.00;99.90
20446;DHT22;10382;49.140;9.234;2022-10-16T01:12:38;19.00;99.90
20446;DHT22;10382;49.140;9.234;2022-10-16T01:15:12;18.90;99.90
20446;DHT22;10382;49.140;9.234;2022-10-16T01:17:44;18.80;99.90
20446;DHT22;10382;49.140;9.234;2022-10-16T01:20:20;18.80;99.90
20446;DHT22;10382;49.140;9.234;2022-10-16T01:22:59;18.80;99.90
20446;DHT22;10382;49.140;9.234;2022-10-16T01:25:40;18.80;99.90
20446;DHT22;10382;49.140;9.234;2022-10-16T01:28:13;18.80;99.90
20446;DHT22;10382;49.140;9.234;2022-10-16T01:30:42;18.90;99.90
20446;DHT22;10382;49.140;9.234;2022-10-16T01:33:14;18.80;99.90
20446;DHT22;10382;49.140;9.234;2022-10-16T01:35:47;18.80;99.90
20446;DHT22;10382;49.140;9.234;2022-10-16T01:38:18;18.70;99.90
20446;DHT22;10382;49.140;9.234;2022-10-16T01:40:49;18.70;99.90
20446;DHT22;10382;49.140;9.234;2022-10-16T01:43:20;18.70;99.90
20446;DHT22;10382;49.140;9.234;2022-10-16T01:45:49;18.60;99.90
20446;DHT22;10382;49.140;9.234;2022-10-16T01:48:18;18.60;99.90
20446;DHT22;10382;49.140;9.234;2022-10-16T01:50:52;18.50;99.90
20446;DHT22;10382;49.140;9.234;2022-10-16T01:53:20;18.50;99.90
20446;DHT22;10382;49.140;9.234;2022-10-16T01:55:49;18.60;99.90
20446;DHT22;10382;49.140;9.234;2022-10-16T01:58:18;18.60;99.90
20446;DHT22;10382;49.140;9.234;2022-10-16T02:00:46;18.70;99.90
20446;DHT22;10382;49.140;9.234;2022-10-16T02:03:17;18.60;99.90
20446;DHT22;10382;49.140;9.234;2022-10-16T02:05:47;18.50;99.90
20446;DHT22;10382;49.140;9.234;2022-10-16T02:08:15;18.60;99.90
20446;DHT22;10382;49.140;9.234;2022-10-16T02:10:42;18.50;99.90
20446;DHT22;10382;49.140;9.234;2022-10-16T02:13:11;18.50;99.90
20446;DHT22;10382;49.140;9.234;2022-10-16T02:15:40;18.50;99.90
20446;DHT22;10382;49.140;9.234;2022-10-16T02:18:08;18.50;99.90
20446;DHT22;10382;49.140;9.234;2022-10-16T02:20:54;18.60;99.90
20446;DHT22;10382;49.140;9.234;2022-10-16T02:23:29;18.70;99.90
20446;DHT22;10382;49.140;9.234;2022-10-16T02:26:03;18.80;99.90
20446;DHT22;10382;49.140;9.234;2022-10-16T02:28:37;18.90;99.90
20446;DHT22;10382;49.140;9.234;2022-10-16T02:31:08;19.10;99.90
20446;DHT22;10382;49.140;9.234;2022-10-16T02:33:38;19.10;99.90
20446;DHT22;10382;49.140;9.234;2022-10-16T02:36:06;19.20;99.90
20446;DHT22;10382;49.140;9.234;2022-10-16T02:38:34;19.30;99.90
20446;DHT22;10382;49.140;9.234;2022-10-16T02:41:02;19.40;99.90
20446;DHT22;10382;49.140;9.234;2022-10-16T02:43:29;19.40;99.90
20446;DHT22;10382;49.140;9.234;2022-10-16T02:45:56;19.50;99.90
20446;DHT22;10382;49.140;9.234;2022-10-16T02:48:24;19.50;99.90
20446;DHT22;10382;49.140;9.234;2022-10-16T02:50:51;19.40;99.90
20446;DHT22;10382;49.140;9.234;2022-10-16T02:53:18;19.40;99.90
20446;DHT22;10382;49.140;9.234;2022-10-16T02:55:45;19.40;99.90
20446;DHT22;10382;49.140;9.234;2022-10-16T02:58:12;19.40;99.90
20446;DHT22;10382;49.140;9.234;2022-10-16T03:00:39;19.40;99.90
20446;DHT22;10382;49.140;9.234;2022-10-16T03:03:05;19.40;99.90
20446;DHT22;10382;49.140;9.234;2022-10-16T03:05:34;19.40;99.90
20446;DHT22;10382;49.140;9.234;2022-10-16T03:08:00;19.40;99.90
20446;DHT22;10382;49.140;9.234;2022-10-16T03:10:27;19.40;99.90
20446;DHT22;10382;49.140;9.234;2022-10-16T03:12:54;19.40;99.90
20446;DHT22;10382;49.140;9.234;2022-10-16T03:15:21;19.40;99.90
20446;DHT22;10382;49.140;9.234;2022-10-16T03:17:48;19.30;99.90
20446;DHT22;10382;49.140;9.234;2022-10-16T03:20:15;19.20;99.90
20446;DHT22;10382;49.140;9.234;2022-10-16T03:22:43;19.20;99.90
20446;DHT22;10382;49.140;9.234;2022-10-16T03:25:10;19.10;99.90
20446;DHT22;10382;49.140;9.234;2022-10-16T03:27:37;19.10;99.90
20446;DHT22;10382;49.140;9.234;2022-10-16T03:30:04;19.00;99.90
20446;DHT22;10382;49.140;9.234;2022-10-16T03:32:31;19.00;99.90
20446;DHT22;10382;49.140;9.234;2022-10-16T03:34:58;19.00;99.90
20446;DHT22;10382;49.140;9.234;2022-10-16T03:37:25;19.00;99.90
20446;DHT22;10382;49.140;9.234;2022-10-16T03:39:53;19.10;99.90
20446;DHT22;10382;49.140;9.234;2022-10-16T03:42:20;19.20;99.90
20446;DHT22;10382;49.140;9.234;2022-10-16T03:44:47;19.30;99.90
20446;DHT22;10382;49.140;9.234;2022-10-16T03:47:14;19.30;99.90
20446;DHT22;10382;49.140;9.234;2022-10-16T03:49:40;19.30;99.90
20446;DHT22;10382;49.140;9.234;2022-10-16T03:52:07;19.40;99.90
20446;DHT22;10382;49.140;9.234;2022-10-16T03:54:34;19.40;99.90
20446;DHT22;10382;49.140;9.234;2022-10-16T03:57:02;19.50;99.90
20446;DHT22;10382;49.140;9.234;2022-10-16T03:59:29;19.50;99.90
20446;DHT22;10382;49.140;9.234;2022-10-16T04:01:56;19.50;99.90
20446;DHT22;10382;49.140;9.234;2022-10-16T04:04:23;19.50;99.90
20446;DHT22;10382;49.140;9.234;2022-10-16T04:06:50;19.50;99.90
20446;DHT22;10382;49.140;9.234;2022-10-16T04:09:17;19.50;99.90
20446;DHT22;10382;49.140;9.234;2022-10-16T04:11:44;19.50;99.90
20446;DHT22;10382;49.140;9.234;2022-10-16T04:14:12;19.50;99.90
20446;DHT22;10382;49.140;9.234;2022-10-16T04:16:39;19.50;99.90
20446;DHT22;10382;49.140;9.234;2022-10-16T04:19:06;19.50;99.90
20446;DHT22;10382;49.140;9.234;2022-10-16T04:21:33;19.40;99.90
20446;DHT22;10382;49.140;9.234;2022-10-16T04:23:59;19.30;99.90
20446;DHT22;10382;49.140;9.234;2022-10-16T04:26:26;19.30;99.90
20446;DHT22;10382;49.140;9.234;2022-10-16T04:28:53;19.30;99.90
20446;DHT22;10382;49.140;9.234;2022-10-16T04:31:21;19.30;99.90
20446;DHT22;10382;49.140;9.234;2022-10-16T04:33:48;19.30;99.90
20446;DHT22;10382;49.140;9.234;2022-10-16T04:36:15;19.30;99.90
20446;DHT22;10382;49.140;9.234;2022-10-16T04:38:42;19.30;99.90
20446;DHT22;10382;49.140;9.234;2022-10-16T04:41:09;19.20;99.90
20446;DHT22;10382;49.140;9.234;2022-10-16T04:43:36;19.30;99.90
20446;DHT22;10382;49.140;9.234;2022-10-16T04:46:03;19.30;99.90
20446;DHT22;10382;49.140;9.234;2022-10-16T04:48:31;19.30;99.90
20446;DHT22;10382;49.140;9.234;2022-10-16T04:50:58;19.30;99.90
20446;DHT22;10382;49.140;9.234;2022-10-16T04:53:25;19.30;99.90
20446;DHT22;10382;49.140;9.234;2022-10-16T04:55:52;19.30;99.90
20446;DHT22;10382;49.140;9.234;2022-10-16T04:58:19;19.30;99.90
20446;DHT22;10382;49.140;9.234;2022-10-16T05:00:46;19.30;99.90
20446;DHT22;10382;49.140;9.234;2022-10-16T05:03:13;19.30;99.90
20446;DHT22;10382;49.140;9.234;2022-10-16T05:05:44;19.30;99.90
20446;DHT22;10382;49.140;9.234;2022-10-16T05:08:11;19.30;99.90
20446;DHT22;10382;49.140;9.234;2022-10-16T05:10:39;19.30;99.90
20446;DHT22;10382;49.140;9.234;2022-10-16T05:13:07;19.30;99.90
20446;DHT22;10382;49.140;9.234;2022-10-16T05:15:34;19.30;99.90
20446;DHT22;10382;49.140;9.234;2022-10-16T05:18:00;19.30;99.90
20446;DHT22;10382;49.140;9.234;2022-10-16T05:20:27;19.40;99.90
20446;DHT22;10382;49.140;9.234;2022-10-16T05:22:55;19.30;99.90
20446;DHT22;10382;49.140;9.234;2022-10-16T05:25:22;19.30;99.90
20446;DHT22;10382;49.140;9.234;2022-10-16T05:27:49;19.30;99.90
20446;DHT22;10382;49.140;9.234;2022-10-16T05:30:17;19.20;99.90
20446;DHT22;10382;49.140;9.234;2022-10-16T05:32:46;19.20;99.90
20446;DHT22;10382;49.140;9.234;2022-10-16T05:35:13;19.20;99.90
20446;DHT22;10382;49.140;9.234;2022-10-16T05:37:41;19.10;99.90
20446;DHT22;10382;49.140;9.234;2022-10-16T05:40:10;18.90;99.90
20446;DHT22;10382;49.140;9.234;2022-10-16T05:42:37;18.70;99.90
20446;DHT22;10382;49.140;9.234;2022-10-16T05:45:05;18.60;99.90
20446;DHT22;10382;49.140;9.234;2022-10-16T05:47:32;18.40;99.90
20446;DHT22;10382;49.140;9.234;2022-10-16T05:49:59;18.50;99.90
20446;DHT22;10382;49.140;9.234;2022-10-16T05:52:27;18.50;99.90
20446;DHT22;10382;49.140;9.234;2022-10-16T05:54:54;18.70;99.90
20446;DHT22;10382;49.140;9.234;2022-10-16T05:57:22;18.70;99.90
20446;DHT22;10382;49.140;9.234;2022-10-16T05:59:48;18.70;99.90
20446;DHT22;10382;49.140;9.234;2022-10-16T06:02:15;18.70;99.90
20446;DHT22;10382;49.140;9.234;2022-10-16T06:04:42;18.70;99.90
20446;DHT22;10382;49.140;9.234;2022-10-16T06:07:09;18.80;99.90
20446;DHT22;10382;49.140;9.234;2022-10-16T06:09:36;18.70;99.90
20446;DHT22;10382;49.140;9.234;2022-10-16T06:12:03;18.70;99.90
20446;DHT22;10382;49.140;9.234;2022-10-16T06:14:32;18.70;99.90
20446;DHT22;10382;49.140;9.234;2022-10-16T06:16:59;18.70;99.90
20446;DHT22;10382;49.140;9.234;2022-10-16T06:19:26;18.70;99.90
20446;DHT22;10382;49.140;9.234;2022-10-16T06:21:52;18.70;99.90
20446;DHT22;10382;49.140;9.234;2022-10-16T06:24:19;18.60;99.90
20446;DHT22;10382;49.140;9.234;2022-10-16T06:26:46;18.60;99.90
20446;DHT22;10382;49.140;9.234;2022-10-16T06:29:13;18.60;99.90
20446;DHT22;10382;49.140;9.234;2022-10-16T06:31:41;18.70;99.90
20446;DHT22;10382;49.140;9.234;2022-10-16T06:34:09;18.70;99.90
20446;DHT22;10382;49.140;9.234;2022-10-16T06:36:37;18.70;99.90
20446;DHT22;10382;49.140;9.234;2022-10-16T06:39:05;18.80;99.90
20446;DHT22;10382;49.140;9.234;2022-10-16T06:41:33;18.90;99.90
20446;DHT22;10382;49.140;9.234;2022-10-16T06:44:00;19.00;99.90
20446;DHT22;10382;49.140;9.234;2022-10-16T06:46:27;19.10;99.90
20446;DHT22;10382;49.140;9.234;2022-10-16T06:48:55;19.30;99.90
20446;DHT22;10382;49.140;9.234;2022-10-16T06:51:24;19.30;99.90
20446;DHT22;10382;49.140;9.234;2022-10-16T06:53:52;19.50;99.90
20446;DHT22;10382;49.140;9.234;2022-10-16T06:56:20;19.50;99.90
20446;DHT22;10382;49.140;9.234;2022-10-16T06:58:48;19.60;99.90
20446;DHT22;10382;49.140;9.234;2022-10-16T07:01:21;19.60;99.90
20446;DHT22;10382;49.140;9.234;2022-10-16T07:03:48;19.70;99.90
20446;DHT22;10382;49.140;9.234;2022-10-16T07:06:18;19.60;99.90
20446;DHT22;10382;49.140;9.234;2022-10-16T07:08:46;19.60;99.90
20446;DHT22;10382;49.140;9.234;2022-10-16T07:11:16;19.60;99.90
20446;DHT22;10382;49.140;9.234;2022-10-16T07:13:44;19.60;99.90
20446;DHT22;10382;49.140;9.234;2022-10-16T07:16:13;19.60;99.90
20446;DHT22;10382;49.140;9.234;2022-10-16T07:18:40;19.60;99.90
20446;DHT22;10382;49.140;9.234;2022-10-16T07:21:09;19.60;99.90
20446;DHT22;10382;49.140;9.234;2022-10-16T07:23:38;19.60;99.90
20446;DHT22;10382;49.140;9.234;2022-10-16T07:26:06;19.70;99.90
20446;DHT22;10382;49.140;9.234;2022-10-16T07:28:33;19.70;99.90
20446;DHT22;10382;49.140;9.234;2022-10-16T07:31:01;19.90;99.90
20446;DHT22;10382;49.140;9.234;2022-10-16T07:33:29;19.90;99.90
20446;DHT22;10382;49.140;9.234;2022-10-16T07:35:56;19.90;99.90
20446;DHT22;10382;49.140;9.234;2022-10-16T07:38:23;19.90;99.90
20446;DHT22;10382;49.140;9.234;2022-10-16T07:40:57;19.80;99.90
20446;DHT22;10382;49.140;9.234;2022-10-16T07:43:24;19.90;99.90
20446;DHT22;10382;49.140;9.234;2022-10-16T07:45:52;20.00;99.90
20446;DHT22;10382;49.140;9.234;2022-10-16T07:48:20;19.70;99.90
20446;DHT22;10382;49.140;9.234;2022-10-16T07:50:48;19.70;99.90
20446;DHT22;10382;49.140;9.234;2022-10-16T07:53:15;19.70;99.90
20446;DHT22;10382;49.140;9.234;2022-10-16T07:55:42;19.70;99.90
20446;DHT22;10382;49.140;9.234;2022-10-16T07:58:10;19.70;99.90
20446;DHT22;10382;49.140;9.234;2022-10-16T08:00:38;19.60;99.90
20446;DHT22;10382;49.140;9.234;2022-10-16T08:03:04;19.70;99.90
20446;DHT22;10382;49.140;9.234;2022-10-16T08:05:32;19.70;99.90
20446;DHT22;10382;49.140;9.234;2022-10-16T08:08:00;19.70;99.90
20446;DHT22;10382;49.140;9.234;2022-10-16T08:10:27;19.80;99.90
20446;DHT22;10382;49.140;9.234;2022-10-16T08:12:54;19.80;99.90
20446;DHT22;10382;49.140;9.234;2022-10-16T08:15:23;19.90;99.90
20446;DHT22;10382;49.140;9.234;2022-10-16T08:17:57;19.90;99.90
20446;DHT22;10382;49.140;9.234;2022-10-16T08:20:25;20.00;99.90
20446;DHT22;10382;49.140;9.234;2022-10-16T08:22:52;20.10;99.90
20446;DHT22;10382;49.140;9.234;2022-10-16T08:25:20;20.20;99.90
20446;DHT22;10382;49.140;9.234;2022-10-16T08:27:47;20.70;99.90
20446;DHT22;10382;49.140;9.234;2022-10-16T08:30:14;21.20;99.90
20446;DHT22;10382;49.140;9.234;2022-10-16T08:32:42;21.70;99.90
20446;DHT22;10382;49.140;9.234;2022-10-16T08:35:09;21.90;99.90
20446;DHT22;10382;49.140;9.234;2022-10-16T08:37:37;22.10;99.90
20446;DHT22;10382;49.140;9.234;2022-10-16T08:40:06;22.70;99.90
20446;DHT22;10382;49.140;9.234;2022-10-16T08:42:44;23.80;99.90
20446;DHT22;10382;49.140;9.234;2022-10-16T08:45:27;24.80;99.90
20446;DHT22;10382;49.140;9.234;2022-10-16T08:48:08;25.50;99.90
20446;DHT22;10382;49.140;9.234;2022-10-16T08:50:39;25.30;99.90
20446;DHT22;10382;49.140;9.234;2022-10-16T08:53:07;24.90;99.90
20446;DHT22;10382;49.140;9.234;2022-10-16T08:55:41;24.70;99.90
20446;DHT22;10382;49.140;9.234;2022-10-16T08:58:12;24.30;99.90
20446;DHT22;10382;49.140;9.234;2022-10-16T09:00:40;23.90;99.90
20446;DHT22;10382;49.140;9.234;2022-10-16T09:03:17;23.40;99.90
20446;DHT22;10382;49.140;9.234;2022-10-16T09:08:56;23.40;99.90
20446;DHT22;10382;49.140;9.234;2022-10-16T09:11:35;23.40;99.90
20446;DHT22;10382;49.140;9.234;2022-10-16T09:14:12;23.10;99.90
20446;DHT22;10382;49.140;9.234;2022-10-16T09:16:46;22.80;99.90
20446;DHT22;10382;49.140;9.234;2022-10-16T09:19:22;22.50;99.90
20446;DHT22;10382;49.140;9.234;2022-10-16T09:21:51;22.20;99.90
20446;DHT22;10382;49.140;9.234;2022-10-16T09:24:20;22.00;99.90
20446;DHT22;10382;49.140;9.234;2022-10-16T09:26:47;22.00;99.90
20446;DHT22;10382;49.140;9.234;2022-10-16T09:29:15;22.30;99.90
20446;DHT22;10382;49.140;9.234;2022-10-16T09:31:43;22.50;99.90
20446;DHT22;10382;49.140;9.234;2022-10-16T09:34:22;22.70;99.90
20446;DHT22;10382;49.140;9.234;2022-10-16T09:36:51;23.60;99.90
20446;DHT22;10382;49.140;9.234;2022-10-16T09:39:18;24.50;99.90
20446;DHT22;10382;49.140;9.234;2022-10-16T09:41:45;25.20;99.90
20446;DHT22;10382;49.140;9.234;2022-10-16T09:44:19;26.40;99.90
20446;DHT22;10382;49.140;9.234;2022-10-16T09:46:47;27.80;99.90
20446;DHT22;10382;49.140;9.234;2022-10-16T09:49:24;28.30;99.90
20446;DHT22;10382;49.140;9.234;2022-10-16T09:52:03;28.70;99.90
20446;DHT22;10382;49.140;9.234;2022-10-16T09:54:31;29.50;99.90
20446;DHT22;10382;49.140;9.234;2022-10-16T09:57:04;30.20;99.90
20446;DHT22;10382;49.140;9.234;2022-10-16T09:59:31;29.80;99.90
20446;DHT22;10382;49.140;9.234;2022-10-16T10:02:03;29.40;99.90
20446;DHT22;10382;49.140;9.234;2022-10-16T10:04:40;28.60;99.90
20446;DHT22;10382;49.140;9.234;2022-10-16T10:07:17;28.10;99.90
20446;DHT22;10382;49.140;9.234;2022-10-16T10:09:45;27.80;99.90
20446;DHT22;10382;49.140;9.234;2022-10-16T10:12:21;27.60;99.90
20446;DHT22;10382;49.140;9.234;2022-10-16T10:14:49;27.70;99.90
20446;DHT22;10382;49.140;9.234;2022-10-16T10:17:18;28.50;99.90
20446;DHT22;10382;49.140;9.234;2022-10-16T10:19:52;29.80;99.90
20446;DHT22;10382;49.140;9.234;2022-10-16T10:22:26;31.00;99.90
20446;DHT22;10382;49.140;9.234;2022-10-16T10:24:59;32.00;99.90
20446;DHT22;10382;49.140;9.234;2022-10-16T10:27:33;31.70;97.50
20446;DHT22;10382;49.140;9.234;2022-10-16T10:30:07;30.70;98.90
20446;DHT22;10382;49.140;9.234;2022-10-16T10:32:43;29.90;99.80
20446;DHT22;10382;49.140;9.234;2022-10-16T10:35:20;29.60;99.90
20446;DHT22;10382;49.140;9.234;2022-10-16T10:38:03;28.90;99.90
20446;DHT22;10382;49.140;9.234;2022-10-16T10:40:44;28.40;99.90
20446;DHT22;10382;49.140;9.234;2022-10-16T10:43:23;28.20;99.90
20446;DHT22;10382;49.140;9.234;2022-10-16T10:45:56;28.10;99.90
20446;DHT22;10382;49.140;9.234;2022-10-16T10:48:57;28.00;99.90
20446;DHT22;10382;49.140;9.234;2022-10-16T10:51:31;27.90;99.90
20446;DHT22;10382;49.140;9.234;2022-10-16T10:54:13;27.70;99.90
20446;DHT22;10382;49.140;9.234;2022-10-16T10:56:49;27.50;99.90
20446;DHT22;10382;49.140;9.234;2022-10-16T10:59:35;27.30;99.90
20446;DHT22;10382;49.140;9.234;2022-10-16T11:02:09;27.20;99.90
20446;DHT22;10382;49.140;9.234;2022-10-16T11:07:49;27.00;99.90
20446;DHT22;10382;49.140;9.234;2022-10-16T11:10:22;27.20;99.90
20446;DHT22;10382;49.140;9.234;2022-10-16T11:12:54;27.00;99.90
20446;DHT22;10382;49.140;9.234;2022-10-16T11:15:25;26.90;99.90
20446;DHT22;10382;49.140;9.234;2022-10-16T11:17:59;27.00;99.90
20446;DHT22;10382;49.140;9.234;2022-10-16T11:20:32;27.40;99.90
20446;DHT22;10382;49.140;9.234;2022-10-16T11:23:05;28.10;99.90
20446;DHT22;10382;49.140;9.234;2022-10-16T11:25:35;29.40;99.90
20446;DHT22;10382;49.140;9.234;2022-10-16T11:28:08;31.30;99.90
20446;DHT22;10382;49.140;9.234;2022-10-16T11:30:43;33.10;99.50
20446;DHT22;10382;49.140;9.234;2022-10-16T11:33:23;34.10;91.90
20446;DHT22;10382;49.140;9.234;2022-10-16T11:35:54;34.50;88.40
20446;DHT22;10382;49.140;9.234;2022-10-16T11:38:28;34.60;85.80
20446;DHT22;10382;49.140;9.234;2022-10-16T11:41:00;35.00;83.10
20446;DHT22;10382;49.140;9.234;2022-10-16T11:43:34;35.80;76.10
20446;DHT22;10382;49.140;9.234;2022-10-16T11:46:04;36.30;71.70
20446;DHT22;10382;49.140;9.234;2022-10-16T11:48:35;36.60;70.40
20446;DHT22;10382;49.140;9.234;2022-10-16T11:51:08;37.00;69.70
20446;DHT22;10382;49.140;9.234;2022-10-16T11:53:46;37.50;66.40
20446;DHT22;10382;49.140;9.234;2022-10-16T11:56:18;37.50;64.00
20446;DHT22;10382;49.140;9.234;2022-10-16T11:58:52;36.40;63.50
20446;DHT22;10382;49.140;9.234;2022-10-16T12:01:25;35.00;66.90
20446;DHT22;10382;49.140;9.234;2022-10-16T12:04:13;33.60;69.60
20446;DHT22;10382;49.140;9.234;2022-10-16T12:06:44;32.30;71.50
20446;DHT22;10382;49.140;9.234;2022-10-16T12:09:19;31.20;76.80
20446;DHT22;10382;49.140;9.234;2022-10-16T12:11:48;30.40;81.70
20446;DHT22;10382;49.140;9.234;2022-10-16T12:17:26;29.20;88.10
20446;DHT22;10382;49.140;9.234;2022-10-16T12:20:01;29.50;91.10
20446;DHT22;10382;49.140;9.234;2022-10-16T12:22:29;29.90;90.50
20446;DHT22;10382;49.140;9.234;2022-10-16T12:24:58;30.10;90.00
20446;DHT22;10382;49.140;9.234;2022-10-16T12:27:29;30.00;90.40
20446;DHT22;10382;49.140;9.234;2022-10-16T12:29:58;30.30;90.00
20446;DHT22;10382;49.140;9.234;2022-10-16T12:32:31;30.90;87.60
20446;DHT22;10382;49.140;9.234;2022-10-16T12:35:00;31.60;84.80
20446;DHT22;10382;49.140;9.234;2022-10-16T12:37:31;31.80;85.00
20446;DHT22;10382;49.140;9.234;2022-10-16T12:40:04;32.00;83.70
20446;DHT22;10382;49.140;9.234;2022-10-16T12:42:39;32.20;82.90
20446;DHT22;10382;49.140;9.234;2022-10-16T12:45:25;31.50;84.00
20446;DHT22;10382;49.140;9.234;2022-10-16T12:47:56;31.10;84.50
20446;DHT22;10382;49.140;9.234;2022-10-16T12:50:30;30.60;87.40
20446;DHT22;10382;49.140;9.234;2022-10-16T12:52:58;30.60;87.70
20446;DHT22;10382;49.140;9.234;2022-10-16T12:55:26;30.50;87.30
20446;DHT22;10382;49.140;9.234;2022-10-16T12:58:07;30.30;89.20
20446;DHT22;10382;49.140;9.234;2022-10-16T13:00:43;30.10;90.60
20446;DHT22;10382;49.140;9.234;2022-10-16T13:06:20;29.50;91.30
20446;DHT22;10382;49.140;9.234;2022-10-16T13:09:02;29.30;92.90
20446;DHT22;10382;49.140;9.234;2022-10-16T13:11:50;29.10;93.80
20446;DHT22;10382;49.140;9.234;2022-10-16T13:14:49;28.80;93.40
20446;DHT22;10382;49.140;9.234;2022-10-16T13:17:24;28.60;94.30
20446;DHT22;10382;49.140;9.234;2022-10-16T13:20:03;28.40;94.90
20446;DHT22;10382;49.140;9.234;2022-10-16T13:22:39;28.20;94.10
20446;DHT22;10382;49.140;9.234;2022-10-16T13:25:18;27.90;94.60
20446;DHT22;10382;49.140;9.234;2022-10-16T13:27:52;27.70;95.60
20446;DHT22;10382;49.140;9.234;2022-10-16T13:30:24;27.40;96.00
20446;DHT22;10382;49.140;9.234;2022-10-16T13:32:58;27.20;97.60
20446;DHT22;10382;49.140;9.234;2022-10-16T13:35:27;27.10;98.40
20446;DHT22;10382;49.140;9.234;2022-10-16T13:38:11;26.90;98.80
20446;DHT22;10382;49.140;9.234;2022-10-16T13:40:49;26.70;99.90
20446;DHT22;10382;49.140;9.234;2022-10-16T13:43:17;26.30;99.90
20446;DHT22;10382;49.140;9.234;2022-10-16T13:45:54;26.20;99.90
20446;DHT22;10382;49.140;9.234;2022-10-16T13:48:21;26.00;99.90
20446;DHT22;10382;49.140;9.234;2022-10-16T13:50:59;25.90;99.90
20446;DHT22;10382;49.140;9.234;2022-10-16T13:53:26;25.70;99.90
20446;DHT22;10382;49.140;9.234;2022-10-16T13:55:53;25.60;99.90
20446;DHT22;10382;49.140;9.234;2022-10-16T13:58:20;25.50;99.90
20446;DHT22;10382;49.140;9.234;2022-10-16T14:00:59;25.40;99.90
20446;DHT22;10382;49.140;9.234;2022-10-16T14:03:27;25.40;99.90
20446;DHT22;10382;49.140;9.234;2022-10-16T14:05:56;25.40;99.90
20446;DHT22;10382;49.140;9.234;2022-10-16T14:08:25;25.30;99.90
20446;DHT22;10382;49.140;9.234;2022-10-16T14:10:55;25.30;99.90
20446;DHT22;10382;49.140;9.234;2022-10-16T14:13:29;25.30;99.90
20446;DHT22;10382;49.140;9.234;2022-10-16T14:16:00;25.90;99.90
20446;DHT22;10382;49.140;9.234;2022-10-16T14:18:29;26.80;99.90
20446;DHT22;10382;49.140;9.234;2022-10-16T14:21:03;27.50;99.90
20446;DHT22;10382;49.140;9.234;2022-10-16T14:23:32;27.70;99.90
20446;DHT22;10382;49.140;9.234;2022-10-16T14:26:22;27.60;99.90
20446;DHT22;10382;49.140;9.234;2022-10-16T14:29:02;27.40;99.90
20446;DHT22;10382;49.140;9.234;2022-10-16T14:31:33;27.00;99.90
20446;DHT22;10382;49.140;9.234;2022-10-16T14:34:02;26.80;99.90
20446;DHT22;10382;49.140;9.234;2022-10-16T14:36:29;26.50;99.90
20446;DHT22;10382;49.140;9.234;2022-10-16T14:39:02;26.30;99.90
20446;DHT22;10382;49.140;9.234;2022-10-16T14:41:31;26.10;99.90
20446;DHT22;10382;49.140;9.234;2022-10-16T14:44:02;25.90;99.90
20446;DHT22;10382;49.140;9.234;2022-10-16T14:46:33;25.90;99.90
20446;DHT22;10382;49.140;9.234;2022-10-16T14:49:05;25.80;99.90
20446;DHT22;10382;49.140;9.234;2022-10-16T14:51:40;25.60;99.90
20446;DHT22;10382;49.140;9.234;2022-10-16T14:54:07;25.30;99.90
20446;DHT22;10382;49.140;9.234;2022-10-16T14:56:43;25.10;99.90
20446;DHT22;10382;49.140;9.234;2022-10-16T14:59:14;24.90;99.90
20446;DHT22;10382;49.140;9.234;2022-10-16T15:01:44;24.90;99.90
20446;DHT22;10382;49.140;9.234;2022-10-16T15:04:12;24.90;99.90
20446;DHT22;10382;49.140;9.234;2022-10-16T15:06:39;24.70;99.90
20446;DHT22;10382;49.140;9.234;2022-10-16T15:09:06;24.40;99.90
20446;DHT22;10382;49.140;9.234;2022-10-16T15:11:34;24.30;99.90
20446;DHT22;10382;49.140;9.234;2022-10-16T15:14:01;24.10;99.90
20446;DHT22;10382;49.140;9.234;2022-10-16T15:16:29;24.00;99.90
20446;DHT22;10382;49.140;9.234;2022-10-16T15:18:57;24.00;99.90
20446;DHT22;10382;49.140;9.234;2022-10-16T15:21:27;24.10;99.90
20446;DHT22;10382;49.140;9.234;2022-10-16T15:23:54;24.30;99.90
20446;DHT22;10382;49.140;9.234;2022-10-16T15:26:22;24.40;99.90
20446;DHT22;10382;49.140;9.234;2022-10-16T15:28:49;24.50;99.90
20446;DHT22;10382;49.140;9.234;2022-10-16T15:31:16;24.60;99.90
20446;DHT22;10382;49.140;9.234;2022-10-16T15:33:43;24.50;99.90
20446;DHT22;10382;49.140;9.234;2022-10-16T15:36:14;24.40;99.90
20446;DHT22;10382;49.140;9.234;2022-10-16T15:38:41;24.10;99.90
20446;DHT22;10382;49.140;9.234;2022-10-16T15:41:08;23.90;99.90
20446;DHT22;10382;49.140;9.234;2022-10-16T15:43:35;23.80;99.90
20446;DHT22;10382;49.140;9.234;2022-10-16T15:46:03;23.70;99.90
20446;DHT22;10382;49.140;9.234;2022-10-16T15:48:31;23.70;99.90
20446;DHT22;10382;49.140;9.234;2022-10-16T15:50:59;23.90;99.90
20446;DHT22;10382;49.140;9.234;2022-10-16T15:53:27;24.30;99.90
20446;DHT22;10382;49.140;9.234;2022-10-16T15:55:54;24.90;99.90
20446;DHT22;10382;49.140;9.234;2022-10-16T15:58:21;25.20;99.90
20446;DHT22;10382;49.140;9.234;2022-10-16T16:00:54;25.20;99.90